createdAt,value
2022-08-21T00:00:49.046Z,7.30
2022-08-21T00:03:16.430Z,7.10
2022-08-21T00:05:48.573Z,6.82
2022-08-21T00:08:15.914Z,7.72
2022-08-21T00:10:44.691Z,7.53
2022-08-21T00:13:12.521Z,6.95
2022-08-21T00:15:43.771Z,7.30
2022-08-21T00:18:11.849Z,7.10
2022-08-21T00:20:40.011Z,6.72
2022-08-21T00:23:07.626Z,7.20
2022-08-21T00:25:35.330Z,7.45
2022-08-21T00:28:03.280Z,7.50
2022-08-21T00:30:31.019Z,7.55
2022-08-21T00:32:58.617Z,7.13
2022-08-21T00:35:32.755Z,7.20
2022-08-21T00:38:00.259Z,7.82
2022-08-21T00:40:39.638Z,7.00
2022-08-21T00:43:08.945Z,7.30
2022-08-21T00:45:36.173Z,7.40
2022-08-21T00:48:03.293Z,8.23
2022-08-21T00:50:35.557Z,7.30
2022-08-21T00:53:05.293Z,7.63
2022-08-21T00:55:33.913Z,7.55
2022-08-21T00:58:03.464Z,7.05
2022-08-21T01:00:35.301Z,6.63
2022-08-21T01:03:07.484Z,7.35
2022-08-21T01:05:36.497Z,7.68
2022-08-21T01:08:04.981Z,7.53
2022-08-21T01:10:32.788Z,7.35
2022-08-21T01:13:00.767Z,6.93
2022-08-21T01:15:32.185Z,6.75
2022-08-21T01:17:59.319Z,7.72
2022-08-21T01:20:32.408Z,7.93
2022-08-21T01:23:01.457Z,7.18
2022-08-21T01:25:28.417Z,6.88
2022-08-21T01:27:56.188Z,7.25
2022-08-21T01:30:26.103Z,7.28
2022-08-21T01:32:55.207Z,7.03
2022-08-21T01:37:59.881Z,6.63
2022-08-21T01:40:27.055Z,7.30
2022-08-21T01:42:54.477Z,7.25
2022-08-21T01:45:21.606Z,6.80
2022-08-21T01:47:48.882Z,7.05
2022-08-21T01:50:18.234Z,6.93
2022-08-21T01:52:45.603Z,6.97
2022-08-21T01:55:14.823Z,7.65
2022-08-21T01:57:42.497Z,7.10
2022-08-21T02:00:12.552Z,7.13
2022-08-21T02:02:41.952Z,6.97
2022-08-21T02:05:10.825Z,6.80
2022-08-21T02:07:43.474Z,6.88
2022-08-21T02:10:12.866Z,6.57
2022-08-21T02:12:39.797Z,7.30
2022-08-21T02:15:07.992Z,6.78
2022-08-21T02:17:43.498Z,7.00
2022-08-21T02:20:12.675Z,7.32
2022-08-21T02:22:39.640Z,7.85
2022-08-21T02:25:07.094Z,6.35
2022-08-21T02:27:43.894Z,7.32
2022-08-21T02:30:14.841Z,6.57
2022-08-21T02:35:10.401Z,6.68
2022-08-21T02:37:54.992Z,7.65
2022-08-21T02:40:25.097Z,7.40
2022-08-21T02:42:52.216Z,6.77
2022-08-21T02:45:20.058Z,7.28
2022-08-21T02:47:52.394Z,8.15
2022-08-21T02:50:28.166Z,7.43
2022-08-21T02:52:56.067Z,7.32
2022-08-21T02:55:28.938Z,6.90
2022-08-21T02:57:57.327Z,7.32
2022-08-21T03:00:26.509Z,6.93
2022-08-21T03:02:54.533Z,7.07
2022-08-21T03:05:21.613Z,6.95
2022-08-21T03:07:48.873Z,7.13
2022-08-21T03:10:17.157Z,6.97
2022-08-21T03:12:44.166Z,6.40
2022-08-21T03:15:14.638Z,6.80
2022-08-21T03:17:42.031Z,7.53
2022-08-21T03:20:10.106Z,7.30
2022-08-21T03:22:37.081Z,6.32
2022-08-21T03:25:06.408Z,7.60
2022-08-21T03:27:35.074Z,7.18
2022-08-21T03:30:05.560Z,7.45
2022-08-21T03:32:32.681Z,7.47
2022-08-21T03:35:01.255Z,7.35
2022-08-21T03:37:29.012Z,7.60
2022-08-21T03:39:56.130Z,7.10
2022-08-21T03:42:23.826Z,6.78
2022-08-21T03:44:50.762Z,7.43
2022-08-21T03:47:18.095Z,7.32
2022-08-21T03:49:45.046Z,6.63
2022-08-21T03:52:12.014Z,7.10
2022-08-21T03:54:40.992Z,6.75
2022-08-21T03:57:08.355Z,6.53
2022-08-21T03:59:35.480Z,5.60
2022-08-21T04:02:04.679Z,5.70
2022-08-21T04:04:32.505Z,5.32
2022-08-21T04:06:59.548Z,6.50
2022-08-21T04:09:27.266Z,5.22
2022-08-21T04:11:54.885Z,5.90
2022-08-21T04:14:21.869Z,5.65
2022-08-21T04:16:48.864Z,5.43
2022-08-21T04:19:16.653Z,5.68
2022-08-21T04:21:44.122Z,5.50
2022-08-21T04:24:11.902Z,5.40
2022-08-21T04:26:40.231Z,5.63
2022-08-21T04:29:07.701Z,4.90
2022-08-21T04:31:38.093Z,5.45
2022-08-21T04:34:06.332Z,5.18
2022-08-21T04:36:34.418Z,5.10
2022-08-21T04:39:01.641Z,5.60
2022-08-21T04:41:30.549Z,5.50
2022-08-21T04:43:57.726Z,4.95
2022-08-21T04:46:24.684Z,4.60
2022-08-21T04:48:51.862Z,4.75
2022-08-21T04:51:30.905Z,4.80
2022-08-21T04:54:24.447Z,4.68
2022-08-21T04:57:00.727Z,5.25
2022-08-21T04:59:36.626Z,4.63
2022-08-21T05:02:05.742Z,5.43
2022-08-21T05:04:35.497Z,4.50
2022-08-21T05:07:05.331Z,5.10
2022-08-21T05:09:33.454Z,4.65
2022-08-21T05:12:03.330Z,4.60
2022-08-21T05:14:30.255Z,4.83
2022-08-21T05:16:57.535Z,5.30
2022-08-21T05:19:24.565Z,5.07
2022-08-21T05:21:51.812Z,4.78
2022-08-21T05:24:19.007Z,4.75
2022-08-21T05:26:47.761Z,5.30
2022-08-21T05:29:16.729Z,4.57
2022-08-21T05:31:46.539Z,4.43
2022-08-21T05:34:16.246Z,4.63
2022-08-21T05:36:44.208Z,5.20
2022-08-21T05:39:11.392Z,5.60
2022-08-21T05:41:38.340Z,4.93
2022-08-21T05:44:10.245Z,5.05
2022-08-21T05:46:38.805Z,5.03
2022-08-21T05:49:05.771Z,4.93
2022-08-21T05:51:32.750Z,5.22
2022-08-21T05:53:59.817Z,4.93
2022-08-21T05:56:26.799Z,4.93
2022-08-21T05:58:53.995Z,4.88
2022-08-21T06:01:21.127Z,5.60
2022-08-21T06:03:48.064Z,5.20
2022-08-21T06:06:14.987Z,5.00
2022-08-21T06:08:41.984Z,5.13
2022-08-21T06:11:09.979Z,5.05
2022-08-21T06:13:38.844Z,4.82
2022-08-21T06:16:16.006Z,5.70
2022-08-21T06:18:45.410Z,5.38
2022-08-21T06:21:14.530Z,5.60
2022-08-21T06:23:42.440Z,5.22
2022-08-21T06:26:10.623Z,5.38
2022-08-21T06:28:38.131Z,4.95
2022-08-21T06:31:20.820Z,5.30
2022-08-21T06:33:48.325Z,4.93
2022-08-21T06:36:15.768Z,5.25
2022-08-21T06:38:50.842Z,5.57
2022-08-21T06:41:18.983Z,5.03
2022-08-21T06:43:51.653Z,5.05
2022-08-21T06:46:18.930Z,4.85
2022-08-21T06:48:45.945Z,5.65
2022-08-21T06:51:13.405Z,5.10
2022-08-21T06:53:40.377Z,4.90
2022-08-21T06:56:07.354Z,5.63
2022-08-21T06:58:34.604Z,5.32
2022-08-21T07:01:01.757Z,5.85
2022-08-21T07:03:33.268Z,5.43
2022-08-21T07:06:00.293Z,5.80
2022-08-21T07:08:29.078Z,5.32
2022-08-21T07:10:58.822Z,4.75
2022-08-21T07:13:26.052Z,4.90
2022-08-21T07:15:53.040Z,4.32
2022-08-21T07:18:20.912Z,5.03
2022-08-21T07:20:48.662Z,5.45
2022-08-21T07:23:28.490Z,5.30
2022-08-21T07:25:55.819Z,4.65
2022-08-21T07:28:39.259Z,5.32
2022-08-21T07:31:06.999Z,4.60
2022-08-21T07:33:35.411Z,5.07
2022-08-21T07:36:03.019Z,5.32
2022-08-21T07:38:30.022Z,4.85
2022-08-21T07:40:59.984Z,4.88
2022-08-21T07:43:27.296Z,4.75
2022-08-21T07:45:57.348Z,5.05
2022-08-21T07:48:25.003Z,4.78
2022-08-21T07:50:52.447Z,5.00
2022-08-21T07:53:19.541Z,4.47
2022-08-21T07:55:46.611Z,4.47
2022-08-21T07:58:13.880Z,4.80
2022-08-21T08:00:41.333Z,5.22
2022-08-21T08:03:08.362Z,5.32
2022-08-21T08:05:40.123Z,5.40
2022-08-21T08:08:07.105Z,4.65
2022-08-21T08:10:34.265Z,4.80
2022-08-21T08:13:01.608Z,5.38
2022-08-21T08:15:29.327Z,5.25
2022-08-21T08:17:58.145Z,5.13
2022-08-21T08:20:27.429Z,4.93
2022-08-21T08:22:55.678Z,4.70
2022-08-21T08:25:24.052Z,5.03
2022-08-21T08:27:51.115Z,5.00
2022-08-21T08:30:20.000Z,4.93
2022-08-21T08:32:50.559Z,5.88
2022-08-21T08:35:17.680Z,5.15
2022-08-21T08:37:49.850Z,4.97
2022-08-21T08:40:45.161Z,5.00
2022-08-21T08:43:14.747Z,5.25
2022-08-21T08:45:46.673Z,4.87
2022-08-21T08:48:22.284Z,5.22
2022-08-21T08:50:58.683Z,5.53
2022-08-21T08:53:35.968Z,4.97
2022-08-21T08:56:05.444Z,5.28
2022-08-21T08:58:41.935Z,5.40
2022-08-21T09:01:18.601Z,5.28
2022-08-21T09:03:51.237Z,5.30
2022-08-21T09:07:05.524Z,5.32
2022-08-21T09:09:59.062Z,5.45
2022-08-21T09:12:30.048Z,4.97
2022-08-21T09:15:19.502Z,4.55
2022-08-21T09:18:10.188Z,4.40
2022-08-21T09:21:16.977Z,4.28
2022-08-21T09:24:06.021Z,4.40
2022-08-21T09:27:24.448Z,4.00
2022-08-21T09:29:55.308Z,4.55
2022-08-21T09:32:32.466Z,4.25
2022-08-21T09:35:18.351Z,5.13
2022-08-21T09:37:57.728Z,3.85
2022-08-21T09:40:59.362Z,4.68
2022-08-21T09:43:27.119Z,4.30
2022-08-21T09:46:11.162Z,3.67
2022-08-21T09:48:50.295Z,3.85
2022-08-21T09:51:23.959Z,3.50
2022-08-21T09:53:56.100Z,4.50
2022-08-21T09:57:12.580Z,3.83
2022-08-21T09:59:39.629Z,3.78
2022-08-21T10:02:27.241Z,4.68
2022-08-21T10:05:03.918Z,4.05
2022-08-21T10:07:33.169Z,3.72
2022-08-21T10:10:17.016Z,4.35
2022-08-21T10:13:12.323Z,4.60
2022-08-21T10:16:06.697Z,4.43
2022-08-21T10:19:21.272Z,4.47
2022-08-21T10:22:24.079Z,4.60
2022-08-21T10:25:07.756Z,4.32
2022-08-21T10:27:43.709Z,4.43
2022-08-21T10:30:42.729Z,5.32
2022-08-21T10:33:27.443Z,4.38
2022-08-21T10:35:57.221Z,4.40
2022-08-21T10:39:17.409Z,5.20
2022-08-21T10:42:12.007Z,4.25
2022-08-21T10:44:47.067Z,3.70
2022-08-21T10:47:31.828Z,4.30
2022-08-21T10:50:07.891Z,3.95
2022-08-21T10:52:53.382Z,4.13
2022-08-21T10:55:33.146Z,4.35
2022-08-21T10:58:12.663Z,4.00
2022-08-21T11:00:52.565Z,4.60
2022-08-21T11:03:38.868Z,4.53
2022-08-21T11:06:26.188Z,4.75
2022-08-21T11:09:00.722Z,4.00
2022-08-21T11:11:37.022Z,4.32
2022-08-21T11:14:31.089Z,3.80
2022-08-21T11:17:06.403Z,4.45
2022-08-21T11:19:49.451Z,4.03
2022-08-21T11:22:22.683Z,4.45
2022-08-21T11:25:11.851Z,4.22
2022-08-21T11:27:45.153Z,4.82
2022-08-21T11:30:13.320Z,4.75
2022-08-21T11:33:02.305Z,4.80
2022-08-21T11:35:35.362Z,4.70
2022-08-21T11:38:35.686Z,5.38
2022-08-21T11:42:02.463Z,5.28
2022-08-21T11:44:44.902Z,4.55
2022-08-21T11:47:37.532Z,4.50
2022-08-21T11:50:34.492Z,4.38
2022-08-21T11:53:19.446Z,4.47
2022-08-21T11:55:55.221Z,4.35
2022-08-21T11:58:26.811Z,4.38
2022-08-21T12:00:59.351Z,4.38
2022-08-21T12:03:32.103Z,4.60
2022-08-21T12:06:08.361Z,4.82
2022-08-21T12:08:44.086Z,4.70
2022-08-21T12:11:23.555Z,4.82
2022-08-21T12:13:59.851Z,4.60
2022-08-21T12:16:36.270Z,4.57
2022-08-21T12:19:12.606Z,4.85
2022-08-21T12:22:11.017Z,5.05
2022-08-21T12:24:40.742Z,4.40
2022-08-21T12:27:30.562Z,4.43
2022-08-21T12:30:04.205Z,4.17
2022-08-21T12:32:59.226Z,5.22
2022-08-21T12:35:32.956Z,4.95
2022-08-21T12:38:23.028Z,4.45
2022-08-21T12:41:01.972Z,4.47
2022-08-21T12:43:41.865Z,4.72
2022-08-21T12:46:20.495Z,4.33
2022-08-21T12:48:58.972Z,4.80
2022-08-21T12:51:49.875Z,4.18
2022-08-21T12:54:28.489Z,4.53
2022-08-21T12:57:02.336Z,4.47
2022-08-21T12:59:30.803Z,4.32
2022-08-21T13:02:00.992Z,4.45
2022-08-21T13:04:47.395Z,4.78
2022-08-21T13:07:21.642Z,4.35
2022-08-21T13:09:53.543Z,5.10
2022-08-21T13:12:23.290Z,4.43
2022-08-21T13:14:53.498Z,11.55
2022-08-21T13:17:23.291Z,6.25
2022-08-21T13:20:06.943Z,6.75
2022-08-21T13:22:37.924Z,4.60
2022-08-21T13:25:12.547Z,5.13
2022-08-21T13:27:39.880Z,5.47
2022-08-21T13:30:07.248Z,4.82
2022-08-21T13:32:38.914Z,4.70
2022-08-21T13:35:12.865Z,4.60
2022-08-21T13:37:42.205Z,4.80
2022-08-21T13:40:16.051Z,4.55
2022-08-21T13:42:45.043Z,4.35
2022-08-21T13:45:17.957Z,4.50
2022-08-21T13:47:47.228Z,4.28
2022-08-21T13:50:16.206Z,4.50
2022-08-21T13:53:00.228Z,3.95
2022-08-21T13:55:44.709Z,5.68
2022-08-21T13:58:12.817Z,4.30
2022-08-21T14:00:51.296Z,5.00
2022-08-21T14:03:42.544Z,5.13
2022-08-21T14:06:22.476Z,5.88
2022-08-21T14:08:56.293Z,6.70
2022-08-21T14:11:23.643Z,5.05
2022-08-21T14:14:01.631Z,4.90
2022-08-21T14:16:56.502Z,4.43
2022-08-21T14:19:27.529Z,4.60
2022-08-21T14:21:55.706Z,4.57
2022-08-21T14:24:30.219Z,4.55
2022-08-21T14:27:08.679Z,4.82
2022-08-21T14:29:42.100Z,4.25
2022-08-21T14:32:21.915Z,4.32
2022-08-21T14:34:52.358Z,4.18
2022-08-21T14:37:21.860Z,4.68
2022-08-21T14:39:48.880Z,4.63
2022-08-21T14:42:15.959Z,5.00
2022-08-21T14:44:43.046Z,4.88
2022-08-21T14:47:10.703Z,4.75
2022-08-21T14:49:37.676Z,4.43
2022-08-21T14:52:04.791Z,4.72
2022-08-21T14:54:33.296Z,6.10
2022-08-21T14:57:06.492Z,5.80
2022-08-21T14:59:34.430Z,6.00
2022-08-21T15:02:02.859Z,5.03
2022-08-21T15:04:30.028Z,4.10
2022-08-21T15:06:57.687Z,4.50
2022-08-21T15:09:24.996Z,4.60
2022-08-21T15:11:57.491Z,4.38
2022-08-21T15:14:30.837Z,5.13
2022-08-21T15:16:58.616Z,5.13
2022-08-21T15:19:26.198Z,5.13
2022-08-21T15:21:53.610Z,4.53
2022-08-21T15:24:20.542Z,5.20
2022-08-21T15:26:48.058Z,4.93
2022-08-21T15:29:15.330Z,4.07
2022-08-21T15:31:58.452Z,5.05
2022-08-21T15:34:28.289Z,4.57
2022-08-21T15:36:59.421Z,5.20
2022-08-21T15:39:30.173Z,4.38
2022-08-21T15:41:58.149Z,5.28
2022-08-21T15:44:28.142Z,4.85
2022-08-21T15:46:55.300Z,5.18
2022-08-21T15:49:22.267Z,5.00
2022-08-21T15:51:49.235Z,5.28
2022-08-21T15:54:16.175Z,5.28
2022-08-21T15:56:49.667Z,4.28
2022-08-21T15:59:20.750Z,4.88
2022-08-21T16:01:48.334Z,5.32
2022-08-21T16:04:25.735Z,4.85
2022-08-21T16:06:57.698Z,5.70
2022-08-21T16:09:29.042Z,5.03
2022-08-21T16:11:56.123Z,8.60
2022-08-21T16:14:23.094Z,5.55
2022-08-21T16:16:50.063Z,4.78
2022-08-21T16:19:18.326Z,4.60
2022-08-21T16:21:45.498Z,4.88
2022-08-21T16:24:12.437Z,5.03
2022-08-21T16:26:39.919Z,5.20
2022-08-21T16:29:08.765Z,5.35
2022-08-21T16:31:36.128Z,5.15
2022-08-21T16:34:03.411Z,4.40
2022-08-21T16:36:30.435Z,4.72
2022-08-21T16:38:59.211Z,5.32
2022-08-21T16:41:30.839Z,4.70
2022-08-21T16:43:58.572Z,4.80
2022-08-21T16:46:25.991Z,5.32
2022-08-21T16:48:52.961Z,5.18
2022-08-21T16:51:19.971Z,5.03
2022-08-21T16:53:46.977Z,4.60
2022-08-21T16:56:15.822Z,5.55
2022-08-21T16:58:47.636Z,4.65
2022-08-21T17:01:19.780Z,4.15
2022-08-21T17:03:51.212Z,4.88
2022-08-21T17:06:19.080Z,4.85
2022-08-21T17:08:46.672Z,4.97
2022-08-21T17:11:37.162Z,4.65
2022-08-21T17:14:09.028Z,4.85
2022-08-21T17:16:38.245Z,4.97
2022-08-21T17:19:06.319Z,5.03
2022-08-21T17:21:33.651Z,4.72
2022-08-21T17:24:00.630Z,4.70
2022-08-21T17:26:27.738Z,4.95
2022-08-21T17:28:55.099Z,5.15
2022-08-21T17:31:23.215Z,5.07
2022-08-21T17:33:53.229Z,5.10
2022-08-21T17:36:30.251Z,5.03
2022-08-21T17:38:58.534Z,5.00
2022-08-21T17:41:26.637Z,4.97
2022-08-21T17:43:55.136Z,5.07
2022-08-21T17:46:29.590Z,5.38
2022-08-21T17:48:57.788Z,4.57
2022-08-21T17:51:24.984Z,5.40
2022-08-21T17:53:51.925Z,5.40
2022-08-21T17:56:19.977Z,5.60
2022-08-21T17:58:51.707Z,5.45
2022-08-21T18:01:20.341Z,5.20
2022-08-21T18:03:47.917Z,5.93
2022-08-21T18:06:17.945Z,5.50
2022-08-21T18:08:45.933Z,5.10
2022-08-21T18:11:23.028Z,5.30
2022-08-21T18:13:52.867Z,4.80
2022-08-21T18:16:20.103Z,5.30
2022-08-21T18:18:49.186Z,5.82
2022-08-21T18:21:16.239Z,7.13
2022-08-21T18:23:44.927Z,7.03
2022-08-21T18:26:16.375Z,6.18
2022-08-21T18:28:44.386Z,6.05
2022-08-21T18:31:13.327Z,7.45
2022-08-21T18:33:55.975Z,6.13
2022-08-21T18:36:25.917Z,6.47
2022-08-21T18:38:53.362Z,6.68
2022-08-21T18:41:20.496Z,6.93
2022-08-21T18:43:47.781Z,6.72
2022-08-21T18:46:14.856Z,7.88
2022-08-21T18:48:43.278Z,12.63
2022-08-21T18:51:12.398Z,5.82
2022-08-21T18:53:39.705Z,6.60
2022-08-21T18:56:15.549Z,6.30
2022-08-21T18:58:44.416Z,6.22
2022-08-21T19:01:11.912Z,5.93
2022-08-21T19:03:39.201Z,6.85
2022-08-21T19:06:06.336Z,6.30
2022-08-21T19:08:37.130Z,6.85
2022-08-21T19:11:06.668Z,6.70
2022-08-21T19:13:34.332Z,6.60
2022-08-21T19:16:03.916Z,6.88
2022-08-21T19:18:33.515Z,6.88
2022-08-21T19:21:02.897Z,6.53
2022-08-21T19:23:30.390Z,6.45
2022-08-21T19:28:50.587Z,7.03
2022-08-21T19:31:42.772Z,6.72
2022-08-21T19:34:19.424Z,6.70
2022-08-21T19:36:46.865Z,5.53
2022-08-21T19:39:14.965Z,6.40
2022-08-21T19:41:48.917Z,6.47
2022-08-21T19:44:21.729Z,5.95
2022-08-21T19:46:51.207Z,6.43
2022-08-21T19:49:22.639Z,6.63
2022-08-21T19:51:49.981Z,6.45
2022-08-21T19:54:26.642Z,6.63
2022-08-21T19:56:56.561Z,6.55
2022-08-21T19:59:25.577Z,6.68
2022-08-21T20:01:52.548Z,6.38
2022-08-21T20:04:19.796Z,6.50
2022-08-21T20:06:47.185Z,7.20
2022-08-21T20:09:16.278Z,7.28
2022-08-21T20:11:49.380Z,6.50
2022-08-21T20:14:19.454Z,6.90
2022-08-21T20:16:48.587Z,7.28
2022-08-21T20:19:20.389Z,6.50
2022-08-21T20:21:47.445Z,7.20
2022-08-21T20:24:15.452Z,6.82
2022-08-21T20:26:48.652Z,6.93
2022-08-21T20:29:35.000Z,7.35
2022-08-21T20:32:05.110Z,6.35
2022-08-21T20:34:33.350Z,6.00
2022-08-21T20:37:01.405Z,6.75
2022-08-21T20:39:28.569Z,6.45
2022-08-21T20:41:56.746Z,6.80
2022-08-21T20:44:27.667Z,6.68
2022-08-21T20:46:55.018Z,6.25
2022-08-21T20:49:26.946Z,6.97
2022-08-21T20:51:54.281Z,6.88
2022-08-21T20:54:28.937Z,6.60
2022-08-21T20:57:24.274Z,7.00
2022-08-21T20:59:58.048Z,6.53
2022-08-21T21:02:44.322Z,6.40
2022-08-21T21:05:28.239Z,6.97
2022-08-21T21:08:08.344Z,6.10
2022-08-21T21:10:48.112Z,6.18
2022-08-21T21:13:40.367Z,6.38
2022-08-21T21:16:42.061Z,6.22
2022-08-21T21:22:32.292Z,6.63
2022-08-21T21:25:27.351Z,6.18
2022-08-21T21:28:15.962Z,6.30
2022-08-21T21:30:46.649Z,6.32
2022-08-21T21:36:10.432Z,6.28
2022-08-21T21:38:51.909Z,6.32
2022-08-21T21:42:03.583Z,6.18
2022-08-21T21:45:08.562Z,5.70
2022-08-21T21:47:57.633Z,6.22
2022-08-21T21:50:27.371Z,6.38
2022-08-21T21:53:22.579Z,6.47
2022-08-21T21:56:29.098Z,5.78
2022-08-21T21:59:26.225Z,6.30
2022-08-21T22:02:18.079Z,6.60
2022-08-21T22:04:58.154Z,6.70
2022-08-21T22:07:43.490Z,6.55
2022-08-21T22:10:30.229Z,6.45
2022-08-21T22:13:46.493Z,6.63
2022-08-21T22:16:13.880Z,6.53
2022-08-21T22:18:54.707Z,6.63
2022-08-21T22:21:33.676Z,6.82
2022-08-21T22:24:12.661Z,6.60
2022-08-21T22:26:44.126Z,6.55
2022-08-21T22:29:18.309Z,6.28
2022-08-21T22:31:59.733Z,6.38
2022-08-21T22:34:28.856Z,6.40
2022-08-21T22:37:15.270Z,6.20
2022-08-21T22:39:53.563Z,5.75
2022-08-21T22:42:24.787Z,6.78
2022-08-21T22:44:56.434Z,5.80
2022-08-21T22:47:37.847Z,6.57
2022-08-21T22:50:18.586Z,6.20
2022-08-21T22:52:52.110Z,5.95
2022-08-21T22:55:24.782Z,6.22
2022-08-21T22:58:23.755Z,6.78
2022-08-21T23:00:54.680Z,6.47
2022-08-21T23:03:32.522Z,7.10
2022-08-21T23:06:12.808Z,6.20
2022-08-21T23:08:40.536Z,6.75
2022-08-21T23:11:24.408Z,5.82
2022-08-21T23:13:53.755Z,6.22
2022-08-21T23:16:29.917Z,6.85
2022-08-21T23:19:27.501Z,5.82
2022-08-21T23:22:04.586Z,6.63
2022-08-21T23:28:01.762Z,6.80
2022-08-21T23:30:56.910Z,6.40
2022-08-21T23:33:35.955Z,6.10
2022-08-21T23:36:55.543Z,6.50
2022-08-21T23:39:32.202Z,6.35
2022-08-21T23:42:08.293Z,7.07
2022-08-21T23:44:41.013Z,6.63
2022-08-21T23:47:32.165Z,6.90
2022-08-21T23:50:14.170Z,6.72
2022-08-21T23:53:09.084Z,6.70
2022-08-21T23:56:13.501Z,6.67
2022-08-21T23:59:00.840Z,6.03
